Time;durP1;ratioP1;P1;durP2;ratioP2;P2;SDS_P1;SDS_P2;PMS_P1;PMS_P2;Temp;Humidity;BMP_temperature;BMP_pressure;BME280_temperature;BME280_humidity;BME280_pressure;Samples;Min_cycle;Max_cycle;Signal;HPM_P1;HPM_P2
2023/03/19 00:02:17;;;;;;;5.83;3.70;;;12.30;90.90;;;;;;10417427;28;20226;-80
2023/03/19 00:07:19;;;;;;;3.87;2.87;;;12.20;90.90;;;;;;10418033;28;20764;-80
2023/03/19 00:12:23;;;;;;;5.10;4.50;;;12.10;91.00;;;;;;10404822;28;20240;-81
2023/03/19 00:17:25;;;;;;;9.00;7.20;;;12.10;91.40;;;;;;10419242;28;20190;-81
2023/03/19 00:22:27;;;;;;;11.07;8.73;;;12.10;91.20;;;;;;10404159;28;20386;-82
2023/03/19 00:27:31;;;;;;;11.33;9.70;;;12.20;91.70;;;;;;10401865;28;20278;-81
2023/03/19 00:32:34;;;;;;;10.03;8.57;;;12.20;91.80;;;;;;10418653;28;20284;-81
2023/03/19 00:37:36;;;;;;;6.73;6.10;;;12.30;91.50;;;;;;10420092;28;20230;-81
2023/03/19 00:42:40;;;;;;;6.43;4.60;;;12.20;91.90;;;;;;10401764;28;20222;-81
2023/03/19 00:47:42;;;;;;;6.03;5.13;;;12.20;91.70;;;;;;10416915;28;20277;-82
2023/03/19 00:52:44;;;;;;;5.43;3.97;;;12.20;92.20;;;;;;10421721;28;20574;-81
2023/03/19 00:57:48;;;;;;;4.10;3.70;;;12.20;91.80;;;;;;10421196;28;20508;-82
2023/03/19 01:02:50;;;;;;;6.23;4.07;;;12.30;91.80;;;;;;10406394;28;20334;-82
2023/03/19 01:07:52;;;;;;;4.23;3.60;;;12.20;91.90;;;;;;10407726;28;20297;-81
2023/03/19 01:12:55;;;;;;;5.97;3.97;;;12.30;91.70;;;;;;10404124;28;20305;-81
2023/03/19 01:17:58;;;;;;;5.00;3.93;;;12.30;91.70;;;;;;10394137;28;20187;-81
2023/03/19 01:23:00;;;;;;;11.47;8.30;;;12.20;91.90;;;;;;10412720;28;20222;-80
2023/03/19 01:28:04;;;;;;;9.37;5.97;;;12.20;91.80;;;;;;10420053;28;20813;-81
2023/03/19 01:33:06;;;;;;;8.43;6.63;;;12.20;92.30;;;;;;10399320;28;20233;-80
2023/03/19 01:38:18;;;;;;;6.77;5.30;;;12.30;93.10;;;;;;10395089;28;20291;-80
2023/03/19 01:43:24;;;;;;;4.07;3.67;;;12.30;92.40;;;;;;10396215;28;20226;-81
2023/03/19 01:48:39;;;;;;;7.40;6.07;;;12.50;91.80;;;;;;10400570;28;20198;-82
2023/03/19 01:53:49;;;;;;;4.70;4.10;;;12.40;91.90;;;;;;10397896;28;20710;-81
2023/03/19 01:59:31;;;;;;;4.53;4.13;;;12.40;90.60;;;;;;10420018;28;20195;-81
2023/03/19 02:04:59;;;;;;;4.57;4.23;;;12.60;88.30;;;;;;10419224;28;20218;-81
2023/03/19 02:10:03;;;;;;;4.77;4.00;;;12.70;88.70;;;;;;10407275;28;20716;-81
2023/03/19 02:15:08;;;;;;;4.97;4.00;;;12.80;90.00;;;;;;10425171;28;20222;-81
2023/03/19 02:20:17;;;;;;;4.17;3.87;;;12.80;90.50;;;;;;10405874;28;20214;-81
2023/03/19 02:25:26;;;;;;;4.77;4.37;;;12.90;90.60;;;;;;10406679;28;20222;-80
2023/03/19 02:30:33;;;;;;;4.60;4.20;;;12.90;93.60;;;;;;10419706;28;20594;-81
2023/03/19 02:35:42;;;;;;;9.47;8.00;;;12.70;95.70;;;;;;10422776;28;20199;-81
2023/03/19 02:40:50;;;;;;;7.17;5.80;;;12.60;97.90;;;;;;10402632;28;20305;-82
2023/03/19 02:45:54;;;;;;;8.20;7.07;;;12.40;99.40;;;;;;10400893;28;20206;-81
2023/03/19 02:50:57;;;;;;;9.57;8.97;;;12.20;99.90;;;;;;10445793;22;20276;-83
2023/03/19 02:56:00;;;;;;;9.30;8.60;;;12.00;99.90;;;;;;10461006;28;20198;-83
2023/03/19 03:01:05;;;;;;;16.50;15.00;;;12.00;99.90;;;;;;10464732;28;20218;-83
2023/03/19 03:06:07;;;;;;;12.27;11.27;;;11.80;99.90;;;;;;10407245;28;20226;-84
2023/03/19 03:11:10;;;;;;;13.40;12.47;;;11.80;99.90;;;;;;10406479;28;20218;-83
2023/03/19 03:16:14;;;;;;;14.03;13.23;;;11.70;99.90;;;;;;10424432;28;20203;-84
2023/03/19 03:21:18;;;;;;;14.03;13.00;;;11.50;99.90;;;;;;10408809;28;20227;-84
2023/03/19 03:26:21;;;;;;;14.80;13.50;;;11.50;99.90;;;;;;10423531;28;20306;-84
2023/03/19 03:31:25;;;;;;;14.00;13.10;;;11.50;99.90;;;;;;10423572;28;20228;-80
2023/03/19 03:36:28;;;;;;;12.83;12.13;;;11.50;99.90;;;;;;10424677;28;20202;-83
2023/03/19 03:41:32;;;;;;;14.10;13.20;;;11.40;99.90;;;;;;10406081;28;20222;-83
2023/03/19 03:46:37;;;;;;;14.67;13.70;;;11.40;99.90;;;;;;10425485;28;20257;-83
2023/03/19 03:51:40;;;;;;;14.40;13.50;;;11.30;99.90;;;;;;10425161;28;20232;-84
2023/03/19 03:56:42;;;;;;;14.10;13.40;;;11.40;99.90;;;;;;10402829;28;20235;-83
2023/03/19 04:01:45;;;;;;;15.80;14.70;;;11.40;99.90;;;;;;10407717;28;20260;-83
2023/03/19 04:06:47;;;;;;;17.70;16.40;;;11.40;99.90;;;;;;10425339;28;20219;-84
2023/03/19 04:12:01;;;;;;;17.90;16.20;;;11.40;99.90;;;;;;10425632;28;20281;-85
2023/03/19 04:17:05;;;;;;;16.90;15.77;;;11.50;99.90;;;;;;10408088;28;20198;-84
2023/03/19 04:22:07;;;;;;;15.40;14.30;;;11.50;99.90;;;;;;10409011;28;20222;-84
2023/03/19 04:27:10;;;;;;;17.03;15.77;;;11.50;99.90;;;;;;10408796;28;20262;-84
2023/03/19 04:32:15;;;;;;;15.53;14.47;;;11.50;99.90;;;;;;10409525;28;20309;-84
2023/03/19 04:37:17;;;;;;;16.30;15.30;;;11.50;99.90;;;;;;10430473;28;20201;-82
2023/03/19 04:42:23;;;;;;;14.20;13.30;;;11.60;99.90;;;;;;10436367;28;20290;-83
2023/03/19 04:47:34;;;;;;;14.03;13.23;;;11.60;99.90;;;;;;10440731;28;20226;-81
2023/03/19 04:52:38;;;;;;;13.43;12.63;;;11.60;99.90;;;;;;10419421;28;20892;-83
2023/03/19 04:57:40;;;;;;;13.23;12.50;;;11.60;99.90;;;;;;10400078;28;20591;-84
2023/03/19 05:02:44;;;;;;;17.83;16.53;;;11.70;99.90;;;;;;10405698;28;20275;-83
2023/03/19 05:07:46;;;;;;;13.27;12.50;;;11.70;99.90;;;;;;10396018;28;20230;-82
2023/03/19 05:12:48;;;;;;;11.73;11.00;;;11.70;99.90;;;;;;10397532;28;20726;-82
2023/03/19 05:17:52;;;;;;;11.67;10.93;;;11.70;99.90;;;;;;10413230;28;20237;-84
2023/03/19 05:22:57;;;;;;;17.20;15.70;;;11.70;99.90;;;;;;10420343;28;20229;-85
2023/03/19 05:28:10;;;;;;;22.47;20.23;;;11.80;99.90;;;;;;10402617;28;20268;-83
2023/03/19 05:33:14;;;;;;;14.73;13.63;;;11.70;99.90;;;;;;10421722;28;20234;-84
2023/03/19 05:38:19;;;;;;;12.60;11.70;;;11.70;99.90;;;;;;10406765;28;20203;-84
2023/03/19 05:43:29;;;;;;;13.90;12.80;;;11.70;99.90;;;;;;10412322;28;20218;-83
2023/03/19 05:48:34;;;;;;;13.23;12.33;;;11.60;99.90;;;;;;10415180;28;20777;-80
2023/03/19 05:53:38;;;;;;;11.40;10.60;;;11.60;99.90;;;;;;10427742;28;20234;-83
2023/03/19 05:59:10;;;;;;;11.40;10.60;;;11.60;99.90;;;;;;10423198;28;20210;-81
2023/03/19 06:04:19;;;;;;;10.43;9.83;;;11.60;99.90;;;;;;10420719;28;20759;-81
2023/03/19 06:09:22;;;;;;;10.67;10.07;;;11.60;99.90;;;;;;10421267;28;20760;-83
2023/03/19 06:14:29;;;;;;;10.63;9.83;;;11.60;99.90;;;;;;10400895;28;20258;-83
2023/03/19 06:19:56;;;;;;;9.50;8.90;;;11.70;99.90;;;;;;10416668;28;20222;-84
2023/03/19 06:24:58;;;;;;;8.90;8.37;;;11.70;99.90;;;;;;10418987;28;20656;-84
2023/03/19 06:30:00;;;;;;;10.00;9.03;;;11.70;99.90;;;;;;10419913;28;20309;-83
2023/03/19 06:35:09;;;;;;;8.67;8.00;;;11.80;99.90;;;;;;10403654;28;20697;-83
2023/03/19 06:40:12;;;;;;;8.00;7.30;;;11.80;99.90;;;;;;10396415;28;20219;-84
2023/03/19 06:45:17;;;;;;;7.20;6.70;;;11.80;99.90;;;;;;10405724;28;20240;-83
2023/03/19 06:50:21;;;;;;;7.00;6.50;;;11.80;99.90;;;;;;10431467;28;20230;-84
2023/03/19 06:55:23;;;;;;;5.90;5.60;;;11.90;99.90;;;;;;10408589;28;20633;-82
2023/03/19 07:00:25;;;;;;;5.20;4.70;;;12.00;99.90;;;;;;10417509;28;20289;-83
2023/03/19 07:05:35;;;;;;;5.07;4.80;;;12.10;99.90;;;;;;10412386;28;20211;-83
2023/03/19 07:10:38;;;;;;;5.60;4.90;;;12.10;99.90;;;;;;10417364;28;20222;-82
2023/03/19 07:15:40;;;;;;;7.13;4.23;;;12.30;99.90;;;;;;10419907;28;20190;-84
2023/03/19 07:20:43;;;;;;;3.80;3.57;;;12.40;99.90;;;;;;10419965;28;20214;-84
2023/03/19 07:25:46;;;;;;;4.40;4.07;;;12.50;99.90;;;;;;10423092;28;20304;-84
2023/03/19 07:30:48;;;;;;;3.83;3.53;;;12.60;99.90;;;;;;10426875;28;20211;-84
2023/03/19 07:35:52;;;;;;;4.00;3.77;;;12.60;99.90;;;;;;10437364;28;20186;-83
2023/03/19 07:40:54;;;;;;;4.10;3.73;;;12.70;99.90;;;;;;10421590;28;20214;-82
2023/03/19 07:45:56;;;;;;;4.10;3.80;;;12.70;99.90;;;;;;10438447;28;20752;-83
2023/03/19 07:50:59;;;;;;;4.30;3.47;;;12.80;99.90;;;;;;10435508;28;20222;-82
2023/03/19 07:56:01;;;;;;;3.40;3.20;;;12.90;99.90;;;;;;10435284;28;20677;-80
2023/03/19 08:01:04;;;;;;;3.30;3.00;;;13.00;99.90;;;;;;10436215;28;20216;-81
2023/03/19 08:06:08;;;;;;;3.83;3.53;;;13.00;99.90;;;;;;10432340;28;20686;-81
2023/03/19 08:11:10;;;;;;;3.50;3.20;;;13.00;99.90;;;;;;10439133;28;20685;-81
2023/03/19 08:16:13;;;;;;;3.77;3.47;;;13.10;99.90;;;;;;10435260;28;20625;-81
2023/03/19 08:21:17;;;;;;;3.43;3.23;;;13.20;99.90;;;;;;10437299;28;20682;-81
2023/03/19 08:26:19;;;;;;;4.17;3.13;;;13.30;99.90;;;;;;10434605;28;20606;-80
2023/03/19 08:31:21;;;;;;;3.50;3.30;;;13.40;99.90;;;;;;10435809;28;20245;-82
2023/03/19 08:36:25;;;;;;;3.90;3.60;;;13.50;99.90;;;;;;10434272;28;20191;-82
2023/03/19 08:41:28;;;;;;;4.27;3.73;;;13.60;99.90;;;;;;10436602;28;20217;-82
2023/03/19 08:46:30;;;;;;;18.07;15.13;;;13.70;99.90;;;;;;10437244;28;20218;-81
2023/03/19 08:51:34;;;;;;;4.03;3.73;;;13.80;99.90;;;;;;10441385;28;20222;-82
2023/03/19 08:56:36;;;;;;;5.30;3.73;;;13.90;99.90;;;;;;10439150;28;20186;-82
2023/03/19 09:01:38;;;;;;;4.00;3.70;;;14.10;99.90;;;;;;10439209;28;20685;-82
2023/03/19 09:06:41;;;;;;;3.43;3.13;;;14.10;99.90;;;;;;10435121;28;20305;-82
2023/03/19 09:11:43;;;;;;;3.83;3.43;;;14.30;99.90;;;;;;10432816;28;20624;-83
2023/03/19 09:16:46;;;;;;;6.23;3.63;;;14.40;99.90;;;;;;10435615;28;20240;-85
2023/03/19 09:21:49;;;;;;;4.20;3.30;;;14.40;99.90;;;;;;10435940;28;20214;-85
2023/03/19 09:26:51;;;;;;;3.13;2.93;;;14.50;99.90;;;;;;10436291;28;20578;-84
2023/03/19 09:31:53;;;;;;;4.13;3.73;;;14.50;99.90;;;;;;10414662;28;20221;-83
2023/03/19 09:36:57;;;;;;;3.40;3.20;;;14.70;99.90;;;;;;10434985;28;20186;-84
2023/03/19 09:42:15;;;;;;;3.20;2.90;;;15.00;99.90;;;;;;10432023;28;20214;-84
2023/03/19 09:47:26;;;;;;;4.23;3.27;;;15.20;99.20;;;;;;10437659;28;20220;-84
2023/03/19 09:52:40;;;;;;;3.77;3.33;;;15.40;98.40;;;;;;10422093;28;20218;-82
2023/03/19 09:57:42;;;;;;;5.50;3.70;;;15.50;98.40;;;;;;10414984;28;20205;-84
2023/03/19 10:02:44;;;;;;;3.93;3.67;;;15.70;97.70;;;;;;10414548;28;20222;-85
2023/03/19 10:08:13;;;;;;;3.50;3.20;;;15.90;98.40;;;;;;10436645;28;20265;-85
2023/03/19 10:13:36;;;;;;;3.77;3.47;;;16.20;98.80;;;;;;10413061;28;20219;-84
2023/03/19 10:18:44;;;;;;;5.87;3.80;;;16.30;98.60;;;;;;10422398;28;20194;-83
2023/03/19 10:23:54;;;;;;;3.00;2.80;;;16.30;97.00;;;;;;10417043;28;20223;-83
2023/03/19 10:29:04;;;;;;;3.57;3.23;;;16.10;97.20;;;;;;10422439;28;20229;-82
2023/03/19 10:34:19;;;;;;;3.10;2.67;;;15.90;95.90;;;;;;10417475;28;20694;-81
2023/03/19 10:39:22;;;;;;;5.33;3.50;;;15.70;95.70;;;;;;10417033;28;20662;-83
2023/03/19 10:44:30;;;;;;;2.77;2.57;;;15.60;94.80;;;;;;10433233;28;20221;-83
2023/03/19 10:49:36;;;;;;;3.37;3.07;;;15.60;94.50;;;;;;10434038;28;20298;-82
2023/03/19 10:54:43;;;;;;;3.00;2.80;;;15.60;95.50;;;;;;10421173;28;20238;-83
2023/03/19 10:59:47;;;;;;;3.10;2.80;;;15.60;95.50;;;;;;10421233;28;20248;-83
2023/03/19 11:04:49;;;;;;;3.27;2.97;;;15.70;96.10;;;;;;10419799;28;20207;-82
2023/03/19 11:09:56;;;;;;;3.13;2.53;;;15.70;96.00;;;;;;10420807;28;20226;-83
2023/03/19 11:14:58;;;;;;;3.00;2.77;;;15.80;94.00;;;;;;10421317;28;20191;-80
2023/03/19 11:20:19;;;;;;;3.63;3.20;;;15.90;92.80;;;;;;10412933;28;20215;-83
2023/03/19 11:25:28;;;;;;;3.47;3.17;;;16.00;92.50;;;;;;10423644;28;20230;-86
2023/03/19 11:30:41;;;;;;;3.00;2.77;;;16.00;93.80;;;;;;10421270;28;20604;-83
2023/03/19 11:35:51;;;;;;;2.70;2.50;;;16.20;92.90;;;;;;10419441;28;20231;-83
2023/03/19 11:41:00;;;;;;;3.50;3.00;;;16.30;93.50;;;;;;10416505;28;20223;-82
2023/03/19 11:46:11;;;;;;;2.90;2.70;;;16.50;93.30;;;;;;10398480;28;20767;-83
2023/03/19 11:51:19;;;;;;;3.27;2.63;;;16.70;92.40;;;;;;10399673;28;20309;-84
2023/03/19 11:56:40;;;;;;;2.63;2.43;;;16.80;90.30;;;;;;10406965;28;20202;-85
2023/03/19 12:02:11;;;;;;;4.57;2.60;;;16.70;90.60;;;;;;10422584;28;20230;-85
2023/03/19 12:07:22;;;;;;;3.13;2.90;;;16.70;90.20;;;;;;10423048;28;20690;-84
2023/03/19 12:12:32;;;;;;;2.57;2.43;;;16.70;90.30;;;;;;10400119;28;20226;-83
2023/03/19 12:17:44;;;;;;;2.83;2.63;;;16.80;92.00;;;;;;10417690;28;20233;-84
2023/03/19 12:22:59;;;;;;;3.53;2.67;;;16.90;90.20;;;;;;10416053;28;20258;-83
2023/03/19 12:28:10;;;;;;;2.87;2.67;;;16.90;90.90;;;;;;10402386;28;20227;-82
2023/03/19 12:33:27;;;;;;;2.83;2.60;;;16.90;89.70;;;;;;10391014;28;20240;-82
2023/03/19 12:38:37;;;;;;;3.50;2.73;;;16.90;88.50;;;;;;10410169;28;20571;-83
2023/03/19 12:43:50;;;;;;;3.40;2.70;;;17.00;90.20;;;;;;10392803;28;20233;-84
2023/03/19 12:48:56;;;;;;;6.00;3.10;;;17.00;91.20;;;;;;10410362;28;20260;-83
2023/03/19 12:54:02;;;;;;;3.17;2.87;;;17.00;90.30;;;;;;10394780;28;20234;-82
2023/03/19 12:59:14;;;;;;;3.03;2.67;;;17.10;89.50;;;;;;10407761;28;20289;-83
2023/03/19 13:04:20;;;;;;;3.23;2.83;;;17.20;90.90;;;;;;10407769;28;20756;-83
2023/03/19 13:09:30;;;;;;;2.93;2.70;;;17.10;90.20;;;;;;10409098;28;20309;-83
2023/03/19 13:14:45;;;;;;;4.27;3.97;;;16.90;91.70;;;;;;10408346;28;20292;-83
2023/03/19 13:19:51;;;;;;;3.50;3.27;;;16.70;91.40;;;;;;10407956;28;20197;-84
2023/03/19 13:24:55;;;;;;;3.83;3.40;;;16.40;95.20;;;;;;10408414;28;20620;-84
2023/03/19 13:30:06;;;;;;;3.93;3.50;;;15.90;98.10;;;;;;10407904;28;20733;-84
2023/03/19 13:35:23;;;;;;;4.27;3.87;;;15.50;99.90;;;;;;10407241;28;20206;-82
2023/03/19 13:40:43;;;;;;;3.90;3.60;;;15.40;99.90;;;;;;10390314;28;20225;-83
2023/03/19 13:45:52;;;;;;;4.60;4.20;;;15.40;99.90;;;;;;10407549;28;20659;-83
2023/03/19 13:50:59;;;;;;;5.63;4.37;;;15.40;99.90;;;;;;10405909;28;20725;-85
2023/03/19 13:56:03;;;;;;;3.20;2.90;;;15.40;99.90;;;;;;10415691;28;20198;-82
2023/03/19 14:01:10;;;;;;;2.63;2.43;;;15.50;99.90;;;;;;10411264;28;20276;-83
2023/03/19 14:06:35;;;;;;;2.47;2.33;;;15.50;99.90;;;;;;10414848;28;20203;-82
2023/03/19 14:11:37;;;;;;;3.00;2.80;;;15.50;99.90;;;;;;10396553;28;20309;-84
2023/03/19 14:16:46;;;;;;;4.33;3.03;;;15.40;99.90;;;;;;10414044;28;20572;-82
2023/03/19 14:22:09;;;;;;;2.80;2.60;;;15.40;99.90;;;;;;10413032;28;20238;-83
2023/03/19 14:27:17;;;;;;;3.00;2.80;;;15.40;99.90;;;;;;10419598;28;20695;-84
2023/03/19 14:32:28;;;;;;;3.40;3.10;;;15.40;99.90;;;;;;10397543;28;20293;-83
2023/03/19 14:37:38;;;;;;;3.73;3.20;;;15.40;99.90;;;;;;10413969;28;20252;-83
2023/03/19 14:42:53;;;;;;;3.50;3.20;;;15.40;99.90;;;;;;10415206;28;20219;-83
2023/03/19 14:48:47;;;;;;;4.40;4.00;;;15.40;99.90;;;;;;10413598;28;20226;-83
2023/03/19 14:53:53;;;;;;;3.90;3.50;;;15.40;99.90;;;;;;10410703;28;20239;-82
2023/03/19 14:58:57;;;;;;;4.00;3.77;;;15.40;99.90;;;;;;10405186;28;20191;-83
2023/03/19 15:04:02;;;;;;;3.83;3.53;;;15.40;99.90;;;;;;10412762;28;20219;-82
2023/03/19 15:09:15;;;;;;;4.13;3.83;;;15.50;99.90;;;;;;10412961;28;20224;-83
2023/03/19 15:14:44;;;;;;;3.50;3.20;;;15.40;99.90;;;;;;10417492;28;20215;-82
2023/03/19 15:19:47;;;;;;;4.00;3.47;;;15.40;99.90;;;;;;10402194;28;20195;-82
2023/03/19 15:24:50;;;;;;;3.77;3.47;;;15.40;99.90;;;;;;10406509;28;20191;-83
2023/03/19 15:29:53;;;;;;;2.90;2.70;;;15.40;99.90;;;;;;10423743;28;20214;-83
2023/03/19 15:34:56;;;;;;;2.80;2.60;;;15.30;99.90;;;;;;10422986;28;20194;-83
2023/03/19 15:40:02;;;;;;;3.03;2.83;;;15.30;99.90;;;;;;10426919;28;20211;-83
2023/03/19 15:45:08;;;;;;;2.80;2.60;;;15.30;99.90;;;;;;10426367;28;20562;-83
2023/03/19 15:50:14;;;;;;;3.10;2.80;;;15.20;99.90;;;;;;10429570;28;20258;-84
2023/03/19 15:55:20;;;;;;;3.87;3.47;;;15.20;99.90;;;;;;10424923;28;20230;-84
2023/03/19 16:00:23;;;;;;;3.20;3.00;;;15.10;99.90;;;;;;10427747;28;20214;-82
2023/03/19 16:05:27;;;;;;;5.37;3.20;;;15.10;99.90;;;;;;10439053;28;20265;-81
2023/03/19 16:10:37;;;;;;;4.47;4.03;;;15.00;99.90;;;;;;10441266;28;20210;-83
2023/03/19 16:15:43;;;;;;;4.40;4.00;;;14.90;99.90;;;;;;10422576;28;20660;-82
2023/03/19 16:20:49;;;;;;;4.73;4.33;;;14.60;99.90;;;;;;10426254;28;20222;-82
2023/03/19 16:25:53;;;;;;;6.40;6.00;;;14.30;99.90;;;;;;10442261;28;20650;-81
2023/03/19 16:30:55;;;;;;;8.53;8.00;;;14.00;99.90;;;;;;10423846;28;20226;-82
2023/03/19 16:35:57;;;;;;;10.57;9.60;;;13.70;99.90;;;;;;10420917;28;20606;-82
2023/03/19 16:41:22;;;;;;;9.30;8.63;;;13.50;99.90;;;;;;10443181;28;20215;-82
2023/03/19 16:46:25;;;;;;;8.33;7.80;;;13.30;99.90;;;;;;10417098;28;20221;-84
2023/03/19 16:51:28;;;;;;;9.73;9.13;;;13.10;99.90;;;;;;10426609;28;20228;-85
2023/03/19 16:56:31;;;;;;;10.50;9.80;;;13.00;99.90;;;;;;10468327;28;20221;-82
2023/03/19 17:01:34;;;;;;;12.33;11.43;;;12.80;99.90;;;;;;10401685;28;20730;-81
2023/03/19 17:06:36;;;;;;;13.07;12.27;;;12.70;99.90;;;;;;10415850;28;20199;-82
2023/03/19 17:11:42;;;;;;;14.03;12.97;;;12.70;99.90;;;;;;10413389;28;20679;-82
2023/03/19 17:16:49;;;;;;;12.53;11.63;;;12.60;99.90;;;;;;10415860;28;20192;-82
2023/03/19 17:21:54;;;;;;;16.67;15.03;;;12.60;99.90;;;;;;10414931;28;20245;-82
2023/03/19 17:27:00;;;;;;;14.43;13.23;;;12.50;99.90;;;;;;10410159;28;20190;-79
2023/03/19 17:32:03;;;;;;;14.57;13.67;;;12.50;99.90;;;;;;10399760;28;20214;-81
2023/03/19 17:37:12;;;;;;;15.33;14.23;;;12.50;99.90;;;;;;10414866;28;20194;-80
2023/03/19 17:42:20;;;;;;;13.23;12.00;;;12.50;99.90;;;;;;10414931;28;20219;-81
2023/03/19 17:47:22;;;;;;;15.20;14.13;;;12.50;99.90;;;;;;10426941;28;20272;-83
2023/03/19 17:52:24;;;;;;;15.00;13.93;;;12.50;99.90;;;;;;10431292;28;20218;-82
2023/03/19 17:57:27;;;;;;;12.23;11.40;;;12.40;99.90;;;;;;10428626;28;20691;-82
2023/03/19 18:02:34;;;;;;;11.50;10.57;;;12.40;99.90;;;;;;10424849;28;20690;-82
2023/03/19 18:07:36;;;;;;;11.30;10.63;;;12.30;99.90;;;;;;10408908;28;20671;-79
2023/03/19 18:12:39;;;;;;;20.20;18.27;;;12.30;99.90;;;;;;10407777;28;20215;-80
2023/03/19 18:17:46;;;;;;;22.30;19.97;;;12.20;99.90;;;;;;10405876;28;20199;-76
2023/03/19 18:22:48;;;;;;;27.23;24.50;;;12.10;99.90;;;;;;10404846;28;20750;-77
2023/03/19 18:27:52;;;;;;;23.63;21.43;;;12.00;99.90;;;;;;10405592;28;20228;-78
2023/03/19 18:32:58;;;;;;;20.53;18.53;;;12.00;99.90;;;;;;10407225;28;20305;-78
2023/03/19 18:38:00;;;;;;;11.80;10.80;;;11.90;99.90;;;;;;10408911;28;20193;-77
2023/03/19 18:43:03;;;;;;;43.87;38.97;;;11.80;99.90;;;;;;10414233;28;20774;-76
2023/03/19 18:48:19;;;;;;;23.33;21.40;;;11.80;99.90;;;;;;10412512;28;20298;-78
2023/03/19 18:53:22;;;;;;;14.90;13.80;;;11.70;99.90;;;;;;10420054;28;20281;-78
2023/03/19 18:58:28;;;;;;;12.47;11.70;;;11.70;99.90;;;;;;10419588;28;20195;-80
2023/03/19 19:03:32;;;;;;;11.20;10.60;;;11.70;99.90;;;;;;10414836;28;20242;-80
2023/03/19 19:08:36;;;;;;;11.10;10.50;;;11.60;99.90;;;;;;10414505;28;20675;-80
2023/03/19 19:13:42;;;;;;;12.87;12.07;;;11.60;99.90;;;;;;10415668;28;20225;-80
2023/03/19 19:18:44;;;;;;;12.60;11.80;;;11.60;99.90;;;;;;10414230;28;20386;-80
2023/03/19 19:23:46;;;;;;;11.93;11.27;;;11.60;99.90;;;;;;10416331;28;20632;-79
2023/03/19 19:28:51;;;;;;;12.57;11.87;;;11.50;99.90;;;;;;10417822;28;20218;-80
2023/03/19 19:33:53;;;;;;;15.93;14.73;;;11.50;99.90;;;;;;10416736;28;20274;-78
2023/03/19 19:38:55;;;;;;;12.63;11.93;;;11.50;99.90;;;;;;10413964;28;20203;-80
2023/03/19 19:44:01;;;;;;;160.37;139.47;;;11.50;99.90;;;;;;10418167;28;20679;-81
2023/03/19 19:49:04;;;;;;;14.83;13.73;;;11.40;99.90;;;;;;10420664;28;20218;-80
2023/03/19 19:54:06;;;;;;;9.10;8.60;;;11.40;99.90;;;;;;10420299;28;20246;-81
2023/03/19 19:59:14;;;;;;;9.80;9.30;;;11.40;99.90;;;;;;10421192;28;20190;-80
2023/03/19 20:04:16;;;;;;;10.20;9.53;;;11.30;99.90;;;;;;10418029;28;20219;-79
2023/03/19 20:09:18;;;;;;;11.37;10.67;;;11.20;99.90;;;;;;10417656;28;20230;-79
2023/03/19 20:14:22;;;;;;;12.00;11.40;;;11.30;99.90;;;;;;10417963;28;20687;-79
2023/03/19 20:19:24;;;;;;;12.03;11.43;;;11.30;99.90;;;;;;10415567;28;20260;-80
2023/03/19 20:24:26;;;;;;;10.10;9.60;;;11.30;99.90;;;;;;10399402;28;20276;-79
2023/03/19 20:29:35;;;;;;;10.40;9.80;;;11.20;99.90;;;;;;10416295;28;20245;-80
2023/03/19 20:34:37;;;;;;;13.07;12.10;;;11.20;99.90;;;;;;10414497;28;20197;-80
2023/03/19 20:39:39;;;;;;;13.23;12.53;;;11.20;99.90;;;;;;10412469;28;20690;-79
2023/03/19 20:44:43;;;;;;;12.50;11.60;;;11.20;99.90;;;;;;10419452;28;20667;-78
2023/03/19 20:49:45;;;;;;;13.70;12.90;;;11.20;99.90;;;;;;10431305;28;20217;-79
2023/03/19 20:54:48;;;;;;;12.40;11.80;;;11.20;99.90;;;;;;10423942;22;20230;-83
2023/03/19 20:59:51;;;;;;;13.03;12.10;;;11.10;99.90;;;;;;10372558;28;20259;-82
2023/03/19 21:04:53;;;;;;;15.07;13.90;;;11.20;99.90;;;;;;10359443;28;20353;-83
2023/03/19 21:09:56;;;;;;;14.80;13.90;;;11.20;99.90;;;;;;10376271;28;20244;-81
2023/03/19 21:15:00;;;;;;;14.53;13.73;;;11.20;99.90;;;;;;10332923;28;20342;-80
2023/03/19 21:20:02;;;;;;;19.60;17.80;;;11.30;99.90;;;;;;10364380;28;20254;-83
2023/03/19 21:25:07;;;;;;;18.53;17.23;;;11.30;99.90;;;;;;10370316;28;20284;-83
2023/03/19 21:30:16;;;;;;;17.30;16.20;;;11.30;99.90;;;;;;10361061;28;20314;-81
2023/03/19 21:35:19;;;;;;;17.03;15.73;;;11.30;99.90;;;;;;10335800;28;20210;-81
2023/03/19 21:40:25;;;;;;;36.30;29.80;;;11.30;99.90;;;;;;10372032;28;20297;-81
2023/03/19 21:45:32;;;;;;;15.53;14.50;;;11.30;99.90;;;;;;10370424;28;20424;-83
2023/03/19 21:50:34;;;;;;;22.77;20.50;;;11.30;99.90;;;;;;10359731;28;20338;-79
2023/03/19 21:55:36;;;;;;;17.90;16.53;;;11.20;99.90;;;;;;10333731;28;20192;-83
2023/03/19 22:00:40;;;;;;;13.97;13.10;;;11.20;99.90;;;;;;10371703;28;20286;-80
2023/03/19 22:05:42;;;;;;;17.80;16.40;;;11.10;99.90;;;;;;10349367;28;20250;-81
2023/03/19 22:10:45;;;;;;;12.90;12.00;;;11.00;99.90;;;;;;10371863;28;20230;-82
2023/03/19 22:15:51;;;;;;;15.30;14.30;;;10.90;99.90;;;;;;10378730;28;20202;-81
2023/03/19 22:20:53;;;;;;;15.00;14.00;;;10.80;99.90;;;;;;10376771;28;20213;-81
2023/03/19 22:25:55;;;;;;;14.17;13.10;;;10.70;99.90;;;;;;10380153;28;20212;-81
2023/03/19 22:31:00;;;;;;;15.17;14.17;;;10.70;99.90;;;;;;10327345;28;20264;-82
2023/03/19 22:36:02;;;;;;;15.73;14.63;;;10.70;99.90;;;;;;10349774;28;20199;-82
2023/03/19 22:41:13;;;;;;;17.90;16.60;;;10.70;99.90;;;;;;10384599;28;20218;-82
2023/03/19 22:46:20;;;;;;;18.33;17.00;;;10.70;99.90;;;;;;10379904;28;20254;-81
2023/03/19 22:51:28;;;;;;;16.47;15.37;;;10.70;99.90;;;;;;10346641;28;20309;-82
2023/03/19 22:56:30;;;;;;;17.03;15.93;;;10.80;99.90;;;;;;10328732;28;20294;-81
2023/03/19 23:01:39;;;;;;;15.70;14.50;;;10.80;99.90;;;;;;10374414;28;20211;-83
2023/03/19 23:06:41;;;;;;;16.97;15.77;;;10.90;99.90;;;;;;10339700;28;20291;-83
2023/03/19 23:11:43;;;;;;;17.43;16.23;;;11.00;99.90;;;;;;10376161;28;20274;-83
2023/03/19 23:16:49;;;;;;;16.47;15.37;;;11.10;99.90;;;;;;10353279;28;20667;-82
2023/03/19 23:21:51;;;;;;;15.77;14.70;;;11.20;99.90;;;;;;10345803;28;20220;-81
2023/03/19 23:26:56;;;;;;;16.00;14.90;;;11.30;99.90;;;;;;10367846;28;20635;-82
2023/03/19 23:32:00;;;;;;;15.87;14.77;;;11.30;99.90;;;;;;10344452;28;20232;-83
2023/03/19 23:37:05;;;;;;;15.20;14.30;;;11.30;99.90;;;;;;10369723;28;20219;-80
2023/03/19 23:42:10;;;;;;;14.20;13.20;;;11.30;99.90;;;;;;10373370;28;20319;-80
2023/03/19 23:47:15;;;;;;;15.60;14.30;;;11.40;99.90;;;;;;10381339;28;20219;-83
2023/03/19 23:52:17;;;;;;;14.80;13.80;;;11.40;99.90;;;;;;10347139;28;20322;-82
2023/03/19 23:57:21;;;;;;;14.77;13.77;;;11.30;99.90;;;;;;10384216;28;20274;-82
